sensor_id;sensor_type;location;lat;lon;timestamp;pressure;altitude;pressure_sealevel;temperature
77599;BMP280;66758;52.078;5.070;2023-08-17T00:00:44;102499.00;;;18.28
77599;BMP280;66758;52.078;5.070;2023-08-17T00:03:10;102532.22;;;18.24
77599;BMP280;66758;52.078;5.070;2023-08-17T00:05:36;102536.19;;;18.23
77599;BMP280;66758;52.078;5.070;2023-08-17T00:08:02;102539.84;;;18.27
77599;BMP280;66758;52.078;5.070;2023-08-17T00:10:28;102541.75;;;18.23
77599;BMP280;66758;52.078;5.070;2023-08-17T00:12:54;102532.66;;;18.26
77599;BMP280;66758;52.078;5.070;2023-08-17T00:15:19;102544.94;;;18.25
77599;BMP280;66758;52.078;5.070;2023-08-17T00:17:44;102563.44;;;18.18
77599;BMP280;66758;52.078;5.070;2023-08-17T00:20:10;102570.94;;;18.17
77599;BMP280;66758;52.078;5.070;2023-08-17T00:22:35;102581.25;;;18.17
77599;BMP280;66758;52.078;5.070;2023-08-17T00:25:02;102588.75;;;18.16
77599;BMP280;66758;52.078;5.070;2023-08-17T00:27:32;102597.38;;;18.11
77599;BMP280;66758;52.078;5.070;2023-08-17T00:29:57;102595.06;;;18.13
77599;BMP280;66758;52.078;5.070;2023-08-17T00:32:23;102602.06;;;18.07
77599;BMP280;66758;52.078;5.070;2023-08-17T00:34:48;102606.44;;;18.08
77599;BMP280;66758;52.078;5.070;2023-08-17T00:37:13;102605.56;;;18.04
77599;BMP280;66758;52.078;5.070;2023-08-17T00:39:39;102604.38;;;18.05
77599;BMP280;66758;52.078;5.070;2023-08-17T00:42:04;102607.94;;;18.06
77599;BMP280;66758;52.078;5.070;2023-08-17T00:44:30;102618.56;;;18.00
77599;BMP280;66758;52.078;5.070;2023-08-17T00:46:55;102633.88;;;17.94
77599;BMP280;66758;52.078;5.070;2023-08-17T00:49:21;102636.19;;;17.92
77599;BMP280;66758;52.078;5.070;2023-08-17T00:51:46;102643.63;;;17.88
77599;BMP280;66758;52.078;5.070;2023-08-17T00:54:12;102657.84;;;17.86
77599;BMP280;66758;52.078;5.070;2023-08-17T00:56:38;102673.25;;;17.84
77599;BMP280;66758;52.078;5.070;2023-08-17T00:59:03;102677.19;;;17.83
77599;BMP280;66758;52.078;5.070;2023-08-17T01:01:30;102693.41;;;17.81
77599;BMP280;66758;52.078;5.070;2023-08-17T01:03:55;102718.91;;;17.71
77599;BMP280;66758;52.078;5.070;2023-08-17T01:06:20;102725.22;;;17.71
77599;BMP280;66758;52.078;5.070;2023-08-17T01:08:46;102729.06;;;17.67
77599;BMP280;66758;52.078;5.070;2023-08-17T01:11:45;102732.03;;;17.58
77599;BMP280;66758;52.078;5.070;2023-08-17T01:15:05;102742.78;;;17.60
77599;BMP280;66758;52.078;5.070;2023-08-17T01:17:17;102744.19;;;17.53
77599;BMP280;66758;52.078;5.070;2023-08-17T01:19:44;102769.41;;;17.48
77599;BMP280;66758;52.078;5.070;2023-08-17T01:22:14;102785.16;;;17.44
77599;BMP280;66758;52.078;5.070;2023-08-17T01:24:43;102796.97;;;17.41
77599;BMP280;66758;52.078;5.070;2023-08-17T01:27:08;102805.53;;;17.36
77599;BMP280;66758;52.078;5.070;2023-08-17T01:29:34;102822.16;;;17.36
77599;BMP280;66758;52.078;5.070;2023-08-17T01:35:09;102832.31;;;17.32
77599;BMP280;66758;52.078;5.070;2023-08-17T01:37:37;102839.84;;;17.32
77599;BMP280;66758;52.078;5.070;2023-08-17T01:40:05;102855.53;;;17.28
77599;BMP280;66758;52.078;5.070;2023-08-17T01:42:33;102862.25;;;17.27
77599;BMP280;66758;52.078;5.070;2023-08-17T01:44:58;102872.41;;;17.23
77599;BMP280;66758;52.078;5.070;2023-08-17T01:47:24;102878.31;;;17.21
77599;BMP280;66758;52.078;5.070;2023-08-17T01:49:49;102885.34;;;17.19
77599;BMP280;66758;52.078;5.070;2023-08-17T01:52:15;102879.81;;;17.19
77599;BMP280;66758;52.078;5.070;2023-08-17T01:54:40;102874.84;;;17.24
77599;BMP280;66758;52.078;5.070;2023-08-17T01:57:06;102868.41;;;17.20
77599;BMP280;66758;52.078;5.070;2023-08-17T01:59:31;102859.84;;;17.25
77599;BMP280;66758;52.078;5.070;2023-08-17T02:01:56;102860.03;;;17.32
77599;BMP280;66758;52.078;5.070;2023-08-17T02:04:22;102851.28;;;17.30
77599;BMP280;66758;52.078;5.070;2023-08-17T02:06:47;102867.44;;;17.28
77599;BMP280;66758;52.078;5.070;2023-08-17T02:09:13;102868.50;;;17.24
77599;BMP280;66758;52.078;5.070;2023-08-17T02:11:38;102871.25;;;17.24
77599;BMP280;66758;52.078;5.070;2023-08-17T02:14:03;102863.75;;;17.24
77599;BMP280;66758;52.078;5.070;2023-08-17T02:16:29;102864.66;;;17.28
77599;BMP280;66758;52.078;5.070;2023-08-17T02:18:54;102863.31;;;17.22
77599;BMP280;66758;52.078;5.070;2023-08-17T02:21:20;102860.19;;;17.24
77599;BMP280;66758;52.078;5.070;2023-08-17T02:23:45;102864.56;;;17.25
77599;BMP280;66758;52.078;5.070;2023-08-17T02:26:11;102870.81;;;17.22
77599;BMP280;66758;52.078;5.070;2023-08-17T02:28:36;102878.56;;;17.16
77599;BMP280;66758;52.078;5.070;2023-08-17T02:31:01;102877.75;;;17.16
77599;BMP280;66758;52.078;5.070;2023-08-17T02:33:27;102888.75;;;17.12
77599;BMP280;66758;52.078;5.070;2023-08-17T02:35:52;102893.09;;;17.13
77599;BMP280;66758;52.078;5.070;2023-08-17T02:38:18;102899.59;;;17.05
77599;BMP280;66758;52.078;5.070;2023-08-17T02:40:43;102911.69;;;17.12
77599;BMP280;66758;52.078;5.070;2023-08-17T02:43:09;102930.31;;;17.00
77599;BMP280;66758;52.078;5.070;2023-08-17T02:45:35;102927.31;;;17.05
77599;BMP280;66758;52.078;5.070;2023-08-17T02:48:00;102922.09;;;17.03
77599;BMP280;66758;52.078;5.070;2023-08-17T02:50:26;102934.34;;;17.02
77599;BMP280;66758;52.078;5.070;2023-08-17T02:52:51;102934.94;;;16.96
77599;BMP280;66758;52.078;5.070;2023-08-17T02:55:17;102941.72;;;16.98
77599;BMP280;66758;52.078;5.070;2023-08-17T02:57:42;102943.81;;;17.01
77599;BMP280;66758;52.078;5.070;2023-08-17T03:00:08;102952.13;;;17.01
77599;BMP280;66758;52.078;5.070;2023-08-17T03:02:34;102944.84;;;17.09
77599;BMP280;66758;52.078;5.070;2023-08-17T03:04:59;102927.97;;;17.14
77599;BMP280;66758;52.078;5.070;2023-08-17T03:07:24;102937.09;;;17.15
77599;BMP280;66758;52.078;5.070;2023-08-17T03:09:50;102934.78;;;17.17
77599;BMP280;66758;52.078;5.070;2023-08-17T03:12:16;102936.75;;;17.16
77599;BMP280;66758;52.078;5.070;2023-08-17T03:14:41;102925.31;;;17.18
77599;BMP280;66758;52.078;5.070;2023-08-17T03:17:06;102924.97;;;17.19
77599;BMP280;66758;52.078;5.070;2023-08-17T03:19:32;102928.78;;;17.15
77599;BMP280;66758;52.078;5.070;2023-08-17T03:21:57;102936.28;;;17.14
77599;BMP280;66758;52.078;5.070;2023-08-17T03:24:23;102938.47;;;17.08
77599;BMP280;66758;52.078;5.070;2023-08-17T03:26:48;102935.13;;;17.03
77599;BMP280;66758;52.078;5.070;2023-08-17T03:29:14;102928.69;;;17.11
77599;BMP280;66758;52.078;5.070;2023-08-17T03:31:39;102933.66;;;17.05
77599;BMP280;66758;52.078;5.070;2023-08-17T03:34:04;102924.28;;;17.10
77599;BMP280;66758;52.078;5.070;2023-08-17T03:36:30;102920.38;;;17.11
77599;BMP280;66758;52.078;5.070;2023-08-17T03:38:55;102914.13;;;17.14
77599;BMP280;66758;52.078;5.070;2023-08-17T03:41:21;102916.66;;;17.07
77599;BMP280;66758;52.078;5.070;2023-08-17T03:43:48;102907.44;;;17.15
77599;BMP280;66758;52.078;5.070;2023-08-17T03:46:14;102904.66;;;17.15
77599;BMP280;66758;52.078;5.070;2023-08-17T03:48:39;102925.91;;;17.11
77599;BMP280;66758;52.078;5.070;2023-08-17T03:51:05;102916.91;;;17.14
77599;BMP280;66758;52.078;5.070;2023-08-17T03:53:30;102916.91;;;17.14
77599;BMP280;66758;52.078;5.070;2023-08-17T03:55:55;102904.41;;;17.20
77599;BMP280;66758;52.078;5.070;2023-08-17T03:58:21;102912.97;;;17.15
77599;BMP280;66758;52.078;5.070;2023-08-17T04:00:50;102919.66;;;17.14
77599;BMP280;66758;52.078;5.070;2023-08-17T04:03:16;102920.81;;;17.13
77599;BMP280;66758;52.078;5.070;2023-08-17T04:05:42;102929.38;;;17.08
77599;BMP280;66758;52.078;5.070;2023-08-17T04:08:08;102934.66;;;17.13
77599;BMP280;66758;52.078;5.070;2023-08-17T04:10:34;102937.91;;;17.15
77599;BMP280;66758;52.078;5.070;2023-08-17T04:12:59;102935.72;;;17.08
77599;BMP280;66758;52.078;5.070;2023-08-17T04:15:24;102941.00;;;17.13
77599;BMP280;66758;52.078;5.070;2023-08-17T04:17:50;102948.06;;;17.11
77599;BMP280;66758;52.078;5.070;2023-08-17T04:20:15;102947.94;;;17.07
77599;BMP280;66758;52.078;5.070;2023-08-17T04:22:41;102948.41;;;17.09
77599;BMP280;66758;52.078;5.070;2023-08-17T04:25:06;102942.41;;;17.07
77599;BMP280;66758;52.078;5.070;2023-08-17T04:27:32;102940.22;;;17.13
77599;BMP280;66758;52.078;5.070;2023-08-17T04:29:58;102937.81;;;17.11
77599;BMP280;66758;52.078;5.070;2023-08-17T04:32:23;102947.13;;;17.07
77599;BMP280;66758;52.078;5.070;2023-08-17T04:34:49;102947.13;;;17.07
77599;BMP280;66758;52.078;5.070;2023-08-17T04:37:15;102946.47;;;17.10
77599;BMP280;66758;52.078;5.070;2023-08-17T04:39:40;102944.50;;;17.10
77599;BMP280;66758;52.078;5.070;2023-08-17T04:42:06;102951.09;;;17.06
77599;BMP280;66758;52.078;5.070;2023-08-17T04:44:32;102948.75;;;17.08
77599;BMP280;66758;52.078;5.070;2023-08-17T04:46:57;102960.06;;;17.03
77599;BMP280;66758;52.078;5.070;2023-08-17T04:49:23;102959.41;;;17.06
77599;BMP280;66758;52.078;5.070;2023-08-17T04:51:48;102949.91;;;17.07
77599;BMP280;66758;52.078;5.070;2023-08-17T04:54:14;102956.16;;;17.04
77599;BMP280;66758;52.078;5.070;2023-08-17T04:56:39;102954.09;;;17.01
77599;BMP280;66758;52.078;5.070;2023-08-17T04:59:04;102961.34;;;17.05
77599;BMP280;66758;52.078;5.070;2023-08-17T05:01:30;102957.66;;;17.01
77599;BMP280;66758;52.078;5.070;2023-08-17T05:03:57;102955.44;;;17.07
77599;BMP280;66758;52.078;5.070;2023-08-17T05:06:22;102957.44;;;17.06
77599;BMP280;66758;52.078;5.070;2023-08-17T05:08:48;102954.97;;;17.17
77599;BMP280;66758;52.078;5.070;2023-08-17T05:11:13;102945.75;;;17.13
77599;BMP280;66758;52.078;5.070;2023-08-17T05:13:38;102954.28;;;17.08
77599;BMP280;66758;52.078;5.070;2023-08-17T05:16:04;102949.56;;;17.08
77599;BMP280;66758;52.078;5.070;2023-08-17T05:18:31;102949.22;;;17.10
77599;BMP280;66758;52.078;5.070;2023-08-17T05:20:57;102952.91;;;17.14
77599;BMP280;66758;52.078;5.070;2023-08-17T05:23:22;102955.69;;;17.14
77599;BMP280;66758;52.078;5.070;2023-08-17T05:25:48;102948.06;;;17.11
77599;BMP280;66758;52.078;5.070;2023-08-17T05:28:14;102961.78;;;17.07
77599;BMP280;66758;52.078;5.070;2023-08-17T05:30:39;102946.66;;;17.17
77599;BMP280;66758;52.078;5.070;2023-08-17T05:33:04;102944.34;;;17.19
77599;BMP280;66758;52.078;5.070;2023-08-17T05:35:30;102938.91;;;17.23
77599;BMP280;66758;52.078;5.070;2023-08-17T05:37:55;102927.25;;;17.29
77599;BMP280;66758;52.078;5.070;2023-08-17T05:40:21;102927.81;;;17.35
77599;BMP280;66758;52.078;5.070;2023-08-17T05:42:46;102935.31;;;17.34
77599;BMP280;66758;52.078;5.070;2023-08-17T05:45:11;102919.91;;;17.49
77599;BMP280;66758;52.078;5.070;2023-08-17T05:47:37;102923.75;;;17.44
77599;BMP280;66758;52.078;5.070;2023-08-17T05:50:02;102922.34;;;17.50
77599;BMP280;66758;52.078;5.070;2023-08-17T05:52:29;102940.13;;;17.49
77599;BMP280;66758;52.078;5.070;2023-08-17T05:54:55;102929.13;;;17.53
77599;BMP280;66758;52.078;5.070;2023-08-17T05:57:20;102933.06;;;17.52
77599;BMP280;66758;52.078;5.070;2023-08-17T05:59:45;102939.78;;;17.51
77599;BMP280;66758;52.078;5.070;2023-08-17T06:02:11;102943.38;;;17.51
77599;BMP280;66758;52.078;5.070;2023-08-17T06:04:36;102935.22;;;17.59
77599;BMP280;66758;52.078;5.070;2023-08-17T06:07:02;102935.94;;;17.55
77599;BMP280;66758;52.078;5.070;2023-08-17T06:09:27;102939.16;;;17.58
77599;BMP280;66758;52.078;5.070;2023-08-17T06:11:52;102932.06;;;17.72
77599;BMP280;66758;52.078;5.070;2023-08-17T06:14:18;102929.78;;;17.62
77599;BMP280;66758;52.078;5.070;2023-08-17T06:16:44;102940.19;;;17.65
77599;BMP280;66758;52.078;5.070;2023-08-17T06:19:09;102941.00;;;17.66
77599;BMP280;66758;52.078;5.070;2023-08-17T06:21:34;102933.19;;;17.71
77599;BMP280;66758;52.078;5.070;2023-08-17T06:24:00;102943.53;;;17.71
77599;BMP280;66758;52.078;5.070;2023-08-17T06:26:25;102955.53;;;17.63
77599;BMP280;66758;52.078;5.070;2023-08-17T06:28:51;102951.84;;;17.71
77599;BMP280;66758;52.078;5.070;2023-08-17T06:31:16;102957.47;;;17.74
77599;BMP280;66758;52.078;5.070;2023-08-17T06:33:42;102936.16;;;17.90
77599;BMP280;66758;52.078;5.070;2023-08-17T06:36:09;102935.44;;;17.93
77599;BMP280;66758;52.078;5.070;2023-08-17T06:38:34;102936.94;;;17.91
77599;BMP280;66758;52.078;5.070;2023-08-17T06:40:59;102961.75;;;17.72
77599;BMP280;66758;52.078;5.070;2023-08-17T06:43:25;102972.41;;;17.70
77599;BMP280;66758;52.078;5.070;2023-08-17T06:45:50;102962.22;;;17.74
77599;BMP280;66758;52.078;5.070;2023-08-17T06:48:15;102978.38;;;17.72
77599;BMP280;66758;52.078;5.070;2023-08-17T06:50:41;102970.28;;;17.79
77599;BMP280;66758;52.078;5.070;2023-08-17T06:53:06;102980.91;;;17.77
77599;BMP280;66758;52.078;5.070;2023-08-17T06:55:32;102983.69;;;17.77
77599;BMP280;66758;52.078;5.070;2023-08-17T06:57:58;102971.84;;;17.92
77599;BMP280;66758;52.078;5.070;2023-08-17T07:00:23;102962.44;;;17.96
77599;BMP280;66758;52.078;5.070;2023-08-17T07:02:50;102966.28;;;17.92
77599;BMP280;66758;52.078;5.070;2023-08-17T07:05:15;102943.94;;;18.16
77599;BMP280;66758;52.078;5.070;2023-08-17T07:07:41;102942.78;;;18.17
77599;BMP280;66758;52.078;5.070;2023-08-17T07:10:08;102955.31;;;18.11
77599;BMP280;66758;52.078;5.070;2023-08-17T07:12:33;102928.38;;;18.27
77599;BMP280;66758;52.078;5.070;2023-08-17T07:14:59;102909.66;;;18.40
77599;BMP280;66758;52.078;5.070;2023-08-17T07:17:24;102915.69;;;18.42
77599;BMP280;66758;52.078;5.070;2023-08-17T07:19:49;102911.63;;;18.39
77599;BMP280;66758;52.078;5.070;2023-08-17T07:22:15;102899.09;;;18.46
77599;BMP280;66758;52.078;5.070;2023-08-17T07:24:41;102866.16;;;18.79
77599;BMP280;66758;52.078;5.070;2023-08-17T07:27:07;102858.53;;;18.76
77599;BMP280;66758;52.078;5.070;2023-08-17T07:29:32;102848.81;;;18.85
77599;BMP280;66758;52.078;5.070;2023-08-17T07:31:58;102845.03;;;18.74
77599;BMP280;66758;52.078;5.070;2023-08-17T07:34:26;102836.91;;;18.85
77599;BMP280;66758;52.078;5.070;2023-08-17T07:36:52;102849.31;;;18.72
77599;BMP280;66758;52.078;5.070;2023-08-17T07:39:17;102837.06;;;18.92
77599;BMP280;66758;52.078;5.070;2023-08-17T07:41:43;102806.94;;;19.13
77599;BMP280;66758;52.078;5.070;2023-08-17T07:44:09;102755.47;;;19.42
77599;BMP280;66758;52.078;5.070;2023-08-17T07:46:34;102687.13;;;19.67
77599;BMP280;66758;52.078;5.070;2023-08-17T07:49:00;102752.97;;;18.95
77599;BMP280;66758;52.078;5.070;2023-08-17T07:51:25;102793.41;;;18.73
77599;BMP280;66758;52.078;5.070;2023-08-17T07:53:51;102803.28;;;18.90
77599;BMP280;66758;52.078;5.070;2023-08-17T07:56:16;102744.63;;;19.60
77599;BMP280;66758;52.078;5.070;2023-08-17T07:58:41;102677.97;;;19.67
77599;BMP280;66758;52.078;5.070;2023-08-17T08:01:07;102657.88;;;19.51
77599;BMP280;66758;52.078;5.070;2023-08-17T08:03:32;102633.97;;;19.72
77599;BMP280;66758;52.078;5.070;2023-08-17T08:05:58;102644.38;;;19.53
77599;BMP280;66758;52.078;5.070;2023-08-17T08:08:23;102648.00;;;19.57
77599;BMP280;66758;52.078;5.070;2023-08-17T08:10:49;102627.09;;;19.66
77599;BMP280;66758;52.078;5.070;2023-08-17T08:13:14;102579.09;;;20.03
77599;BMP280;66758;52.078;5.070;2023-08-17T08:15:40;102442.78;;;20.54
77599;BMP280;66758;52.078;5.070;2023-08-17T08:18:06;102480.97;;;20.09
77599;BMP280;66758;52.078;5.070;2023-08-17T08:20:32;102530.72;;;19.77
77599;BMP280;66758;52.078;5.070;2023-08-17T08:22:57;102540.78;;;19.89
77599;BMP280;66758;52.078;5.070;2023-08-17T08:25:22;102547.94;;;19.90
77599;BMP280;66758;52.078;5.070;2023-08-17T08:27:48;102545.50;;;19.85
77599;BMP280;66758;52.078;5.070;2023-08-17T08:30:13;102518.91;;;20.24
77599;BMP280;66758;52.078;5.070;2023-08-17T08:32:39;102534.91;;;19.64
77599;BMP280;66758;52.078;5.070;2023-08-17T08:35:04;102543.72;;;20.03
77599;BMP280;66758;52.078;5.070;2023-08-17T08:37:30;102487.78;;;20.15
77599;BMP280;66758;52.078;5.070;2023-08-17T08:39:55;102504.84;;;20.10
77599;BMP280;66758;52.078;5.070;2023-08-17T08:42:22;102530.31;;;19.79
77599;BMP280;66758;52.078;5.070;2023-08-17T08:44:49;102532.66;;;20.10
77599;BMP280;66758;52.078;5.070;2023-08-17T08:47:17;102572.44;;;19.77
77599;BMP280;66758;52.078;5.070;2023-08-17T08:50:03;102576.50;;;19.87
77599;BMP280;66758;52.078;5.070;2023-08-17T08:52:33;102524.34;;;20.54
77599;BMP280;66758;52.078;5.070;2023-08-17T08:55:10;102291.81;;;21.63
77599;BMP280;66758;52.078;5.070;2023-08-17T08:57:38;102189.03;;;21.23
77599;BMP280;66758;52.078;5.070;2023-08-17T09:00:05;102177.44;;;20.85
77599;BMP280;66758;52.078;5.070;2023-08-17T09:02:31;102165.91;;;21.29
77599;BMP280;66758;52.078;5.070;2023-08-17T09:04:58;102168.31;;;21.24
77599;BMP280;66758;52.078;5.070;2023-08-17T09:07:25;102157.56;;;20.94
77599;BMP280;66758;52.078;5.070;2023-08-17T09:09:52;102147.97;;;20.77
77599;BMP280;66758;52.078;5.070;2023-08-17T09:12:17;102221.97;;;20.64
77599;BMP280;66758;52.078;5.070;2023-08-17T09:14:44;102214.41;;;20.57
77599;BMP280;66758;52.078;5.070;2023-08-17T09:17:09;102213.63;;;20.60
77599;BMP280;66758;52.078;5.070;2023-08-17T09:19:35;102216.81;;;20.80
77599;BMP280;66758;52.078;5.070;2023-08-17T09:22:01;102190.19;;;20.90
77599;BMP280;66758;52.078;5.070;2023-08-17T09:24:45;102153.16;;;21.25
77599;BMP280;66758;52.078;5.070;2023-08-17T09:27:13;102117.22;;;21.69
77599;BMP280;66758;52.078;5.070;2023-08-17T09:29:42;102015.91;;;21.86
77599;BMP280;66758;52.078;5.070;2023-08-17T09:32:09;101969.81;;;21.57
77599;BMP280;66758;52.078;5.070;2023-08-17T09:34:36;102060.72;;;21.51
77599;BMP280;66758;52.078;5.070;2023-08-17T09:37:03;102016.75;;;21.83
77599;BMP280;66758;52.078;5.070;2023-08-17T09:39:29;102047.00;;;21.85
77599;BMP280;66758;52.078;5.070;2023-08-17T09:41:54;101921.75;;;22.83
77599;BMP280;66758;52.078;5.070;2023-08-17T09:44:20;101770.09;;;22.79
77599;BMP280;66758;52.078;5.070;2023-08-17T09:46:46;101851.69;;;21.81
77599;BMP280;66758;52.078;5.070;2023-08-17T09:49:11;101810.66;;;21.82
77599;BMP280;66758;52.078;5.070;2023-08-17T09:51:37;101888.19;;;22.04
77599;BMP280;66758;52.078;5.070;2023-08-17T09:54:04;101973.53;;;21.26
77599;BMP280;66758;52.078;5.070;2023-08-17T09:56:30;102021.72;;;21.33
77599;BMP280;66758;52.078;5.070;2023-08-17T09:58:56;102000.81;;;21.77
77599;BMP280;66758;52.078;5.070;2023-08-17T10:01:24;101892.50;;;21.61
77599;BMP280;66758;52.078;5.070;2023-08-17T10:03:51;101946.38;;;21.51
77599;BMP280;66758;52.078;5.070;2023-08-17T10:06:22;101947.63;;;22.01
77599;BMP280;66758;52.078;5.070;2023-08-17T10:08:50;101941.94;;;21.57
77599;BMP280;66758;52.078;5.070;2023-08-17T10:11:19;101941.44;;;21.73
77599;BMP280;66758;52.078;5.070;2023-08-17T10:13:52;101947.03;;;22.28
77599;BMP280;66758;52.078;5.070;2023-08-17T10:16:23;101860.59;;;22.13
77599;BMP280;66758;52.078;5.070;2023-08-17T10:24:11;101951.44;;;21.70
77599;BMP280;66758;52.078;5.070;2023-08-17T10:26:38;101950.44;;;22.01
77599;BMP280;66758;52.078;5.070;2023-08-17T10:29:05;101863.13;;;22.42
77599;BMP280;66758;52.078;5.070;2023-08-17T10:31:34;101822.56;;;22.64
77599;BMP280;66758;52.078;5.070;2023-08-17T10:34:00;101772.69;;;22.93
77599;BMP280;66758;52.078;5.070;2023-08-17T10:36:26;101881.31;;;21.64
77599;BMP280;66758;52.078;5.070;2023-08-17T10:41:46;102053.16;;;21.37
77599;BMP280;66758;52.078;5.070;2023-08-17T10:44:13;102011.19;;;21.76
77599;BMP280;66758;52.078;5.070;2023-08-17T10:46:38;101958.59;;;21.75
77599;BMP280;66758;52.078;5.070;2023-08-17T10:49:06;102030.06;;;21.37
77599;BMP280;66758;52.078;5.070;2023-08-17T10:51:33;102023.66;;;21.47
77599;BMP280;66758;52.078;5.070;2023-08-17T10:54:02;102000.56;;;21.46
77599;BMP280;66758;52.078;5.070;2023-08-17T10:56:29;101974.34;;;22.02
77599;BMP280;66758;52.078;5.070;2023-08-17T10:58:54;101914.84;;;22.12
77599;BMP280;66758;52.078;5.070;2023-08-17T11:01:35;101911.13;;;21.78
77599;BMP280;66758;52.078;5.070;2023-08-17T11:04:16;101971.16;;;22.00
77599;BMP280;66758;52.078;5.070;2023-08-17T11:06:43;101971.56;;;22.02
77599;BMP280;66758;52.078;5.070;2023-08-17T11:09:09;101887.03;;;22.43
77599;BMP280;66758;52.078;5.070;2023-08-17T11:11:35;101991.28;;;21.71
77599;BMP280;66758;52.078;5.070;2023-08-17T11:14:00;102027.19;;;21.61
77599;BMP280;66758;52.078;5.070;2023-08-17T11:16:25;102028.50;;;21.36
77599;BMP280;66758;52.078;5.070;2023-08-17T11:18:51;102055.94;;;21.41
77599;BMP280;66758;52.078;5.070;2023-08-17T11:21:17;102015.53;;;22.43
77599;BMP280;66758;52.078;5.070;2023-08-17T11:23:43;101851.25;;;23.29
77599;BMP280;66758;52.078;5.070;2023-08-17T11:26:09;101720.19;;;23.31
77599;BMP280;66758;52.078;5.070;2023-08-17T11:28:35;101763.84;;;23.25
77599;BMP280;66758;52.078;5.070;2023-08-17T11:31:08;101720.78;;;22.65
77599;BMP280;66758;52.078;5.070;2023-08-17T11:33:35;101639.50;;;23.72
77599;BMP280;66758;52.078;5.070;2023-08-17T11:36:02;101667.50;;;23.26
77599;BMP280;66758;52.078;5.070;2023-08-17T11:41:17;101842.25;;;22.53
77599;BMP280;66758;52.078;5.070;2023-08-17T11:43:43;101917.00;;;21.94
77599;BMP280;66758;52.078;5.070;2023-08-17T11:46:09;101908.19;;;21.99
77599;BMP280;66758;52.078;5.070;2023-08-17T11:48:36;101946.66;;;21.71
77599;BMP280;66758;52.078;5.070;2023-08-17T11:51:02;101991.19;;;21.88
77599;BMP280;66758;52.078;5.070;2023-08-17T11:53:36;101991.19;;;21.88
77599;BMP280;66758;52.078;5.070;2023-08-17T11:56:02;101981.19;;;21.94
77599;BMP280;66758;52.078;5.070;2023-08-17T12:01:09;101963.00;;;21.72
77599;BMP280;66758;52.078;5.070;2023-08-17T12:03:34;102003.16;;;21.85
77599;BMP280;66758;52.078;5.070;2023-08-17T12:06:00;102058.38;;;21.32
77599;BMP280;66758;52.078;5.070;2023-08-17T12:08:25;102080.69;;;21.28
77599;BMP280;66758;52.078;5.070;2023-08-17T12:10:52;102055.03;;;21.76
77599;BMP280;66758;52.078;5.070;2023-08-17T12:13:17;102092.25;;;21.19
77599;BMP280;66758;52.078;5.070;2023-08-17T12:15:43;102120.47;;;21.53
77599;BMP280;66758;52.078;5.070;2023-08-17T12:18:08;102111.75;;;21.30
77599;BMP280;66758;52.078;5.070;2023-08-17T12:20:34;102100.97;;;21.29
77599;BMP280;66758;52.078;5.070;2023-08-17T12:23:02;102065.41;;;21.75
77599;BMP280;66758;52.078;5.070;2023-08-17T12:25:28;102016.00;;;21.72
77599;BMP280;66758;52.078;5.070;2023-08-17T12:27:58;101928.75;;;22.20
77599;BMP280;66758;52.078;5.070;2023-08-17T12:30:28;101933.63;;;22.56
77599;BMP280;66758;52.078;5.070;2023-08-17T12:32:54;101980.97;;;21.57
77599;BMP280;66758;52.078;5.070;2023-08-17T12:35:20;102013.53;;;21.85
77599;BMP280;66758;52.078;5.070;2023-08-17T12:37:48;101868.56;;;22.90
77599;BMP280;66758;52.078;5.070;2023-08-17T12:40:13;101860.22;;;22.86
77599;BMP280;66758;52.078;5.070;2023-08-17T12:42:39;101900.28;;;22.76
77599;BMP280;66758;52.078;5.070;2023-08-17T12:45:05;101898.91;;;22.13
77599;BMP280;66758;52.078;5.070;2023-08-17T12:47:30;101979.81;;;22.20
77599;BMP280;66758;52.078;5.070;2023-08-17T12:49:57;101942.31;;;22.21
77599;BMP280;66758;52.078;5.070;2023-08-17T12:52:23;102048.97;;;21.95
77599;BMP280;66758;52.078;5.070;2023-08-17T12:54:48;102093.31;;;21.72
77599;BMP280;66758;52.078;5.070;2023-08-17T12:57:14;102076.13;;;21.87
77599;BMP280;66758;52.078;5.070;2023-08-17T12:59:39;102109.22;;;21.85
77599;BMP280;66758;52.078;5.070;2023-08-17T13:02:05;102090.91;;;21.74
77599;BMP280;66758;52.078;5.070;2023-08-17T13:04:31;102115.66;;;21.72
77599;BMP280;66758;52.078;5.070;2023-08-17T13:06:56;102089.19;;;22.04
77599;BMP280;66758;52.078;5.070;2023-08-17T13:09:22;102104.47;;;21.75
77599;BMP280;66758;52.078;5.070;2023-08-17T13:11:47;102146.81;;;21.35
77599;BMP280;66758;52.078;5.070;2023-08-17T13:14:14;102043.97;;;22.27
77599;BMP280;66758;52.078;5.070;2023-08-17T13:16:40;101997.84;;;22.05
77599;BMP280;66758;52.078;5.070;2023-08-17T13:19:06;102110.13;;;21.43
77599;BMP280;66758;52.078;5.070;2023-08-17T13:21:31;102125.25;;;21.53
77599;BMP280;66758;52.078;5.070;2023-08-17T13:23:57;102090.44;;;21.89
77599;BMP280;66758;52.078;5.070;2023-08-17T13:26:23;102087.69;;;21.86
77599;BMP280;66758;52.078;5.070;2023-08-17T13:28:49;102109.53;;;22.01
77599;BMP280;66758;52.078;5.070;2023-08-17T13:31:14;102049.03;;;21.77
77599;BMP280;66758;52.078;5.070;2023-08-17T13:33:39;102118.03;;;21.66
77599;BMP280;66758;52.078;5.070;2023-08-17T13:36:05;102125.22;;;21.67
77599;BMP280;66758;52.078;5.070;2023-08-17T13:38:31;102182.66;;;21.22
77599;BMP280;66758;52.078;5.070;2023-08-17T13:40:57;102219.28;;;21.10
77599;BMP280;66758;52.078;5.070;2023-08-17T13:43:22;102224.09;;;21.20
77599;BMP280;66758;52.078;5.070;2023-08-17T13:45:48;102224.84;;;21.10
77599;BMP280;66758;52.078;5.070;2023-08-17T13:48:14;102223.25;;;21.02
77599;BMP280;66758;52.078;5.070;2023-08-17T13:50:40;102224.06;;;21.34
77599;BMP280;66758;52.078;5.070;2023-08-17T13:53:05;102123.16;;;21.85
77599;BMP280;66758;52.078;5.070;2023-08-17T13:55:32;102147.56;;;21.46
77599;BMP280;66758;52.078;5.070;2023-08-17T13:57:58;102126.44;;;21.48
77599;BMP280;66758;52.078;5.070;2023-08-17T14:00:24;102165.09;;;21.50
77599;BMP280;66758;52.078;5.070;2023-08-17T14:02:50;102170.72;;;21.36
77599;BMP280;66758;52.078;5.070;2023-08-17T14:05:16;102137.97;;;21.64
77599;BMP280;66758;52.078;5.070;2023-08-17T14:07:41;102099.22;;;21.91